sensor_id;sensor_type;location;lat;lon;timestamp;P1;P2;P0
72307;PMS5003;60257;42.638;23.376;2023-07-13T00:01:50;14.50;14.50;11.00
72307;PMS5003;60257;42.638;23.376;2023-07-13T00:04:20;17.50;17.00;10.00
72307;PMS5003;60257;42.638;23.376;2023-07-13T00:06:48;17.00;16.00;11.00
72307;PMS5003;60257;42.638;23.376;2023-07-13T00:09:14;15.00;15.00;8.75
72307;PMS5003;60257;42.638;23.376;2023-07-13T00:11:41;14.75;14.25;10.00
72307;PMS5003;60257;42.638;23.376;2023-07-13T00:14:08;14.00;14.00;10.25
72307;PMS5003;60257;42.638;23.376;2023-07-13T00:16:35;18.50;16.25;11.50
72307;PMS5003;60257;42.638;23.376;2023-07-13T00:19:02;17.25;16.00;12.00
72307;PMS5003;60257;42.638;23.376;2023-07-13T00:21:28;12.25;12.25;8.00
72307;PMS5003;60257;42.638;23.376;2023-07-13T00:23:57;15.25;14.25;11.50
72307;PMS5003;60257;42.638;23.376;2023-07-13T00:26:23;19.25;18.00;12.00
72307;PMS5003;60257;42.638;23.376;2023-07-13T00:28:49;18.25;16.00;11.00
72307;PMS5003;60257;42.638;23.376;2023-07-13T00:31:15;15.00;15.00;9.25
72307;PMS5003;60257;42.638;23.376;2023-07-13T00:33:41;12.50;11.50;8.00
72307;PMS5003;60257;42.638;23.376;2023-07-13T00:36:07;18.25;17.00;12.25
72307;PMS5003;60257;42.638;23.376;2023-07-13T00:38:33;14.00;13.50;9.75
72307;PMS5003;60257;42.638;23.376;2023-07-13T00:40:58;14.50;14.50;9.25
72307;PMS5003;60257;42.638;23.376;2023-07-13T00:43:25;15.25;15.00;9.75
72307;PMS5003;60257;42.638;23.376;2023-07-13T00:48:25;14.25;14.25;10.25
72307;PMS5003;60257;42.638;23.376;2023-07-13T00:50:54;13.50;13.50;10.50
72307;PMS5003;60257;42.638;23.376;2023-07-13T00:53:22;18.75;17.00;12.00
72307;PMS5003;60257;42.638;23.376;2023-07-13T00:55:50;15.00;15.00;10.25
72307;PMS5003;60257;42.638;23.376;2023-07-13T00:58:18;18.75;18.25;12.00
72307;PMS5003;60257;42.638;23.376;2023-07-13T01:00:44;15.00;14.25;11.00
72307;PMS5003;60257;42.638;23.376;2023-07-13T01:03:13;20.50;18.00;10.25
72307;PMS5003;60257;42.638;23.376;2023-07-13T01:05:40;15.25;14.25;11.25
72307;PMS5003;60257;42.638;23.376;2023-07-13T01:08:05;18.50;16.75;10.00
72307;PMS5003;60257;42.638;23.376;2023-07-13T01:10:31;16.00;16.00;11.50
72307;PMS5003;60257;42.638;23.376;2023-07-13T01:13:04;14.50;14.50;11.00
72307;PMS5003;60257;42.638;23.376;2023-07-13T01:15:39;17.75;17.75;11.50
72307;PMS5003;60257;42.638;23.376;2023-07-13T01:18:10;17.50;17.50;10.75
72307;PMS5003;60257;42.638;23.376;2023-07-13T01:20:39;17.25;16.25;9.50
72307;PMS5003;60257;42.638;23.376;2023-07-13T01:23:05;16.00;16.00;13.00
72307;PMS5003;60257;42.638;23.376;2023-07-13T01:25:34;15.50;15.50;11.75
72307;PMS5003;60257;42.638;23.376;2023-07-13T01:28:01;16.75;15.75;10.75
72307;PMS5003;60257;42.638;23.376;2023-07-13T01:30:28;16.00;16.00;11.50
72307;PMS5003;60257;42.638;23.376;2023-07-13T01:32:53;16.25;16.25;11.00
72307;PMS5003;60257;42.638;23.376;2023-07-13T01:35:19;16.25;14.75;9.75
72307;PMS5003;60257;42.638;23.376;2023-07-13T01:37:44;13.50;13.50;9.25
72307;PMS5003;60257;42.638;23.376;2023-07-13T01:40:10;14.00;14.00;9.50
72307;PMS5003;60257;42.638;23.376;2023-07-13T01:42:36;12.25;12.25;9.00
72307;PMS5003;60257;42.638;23.376;2023-07-13T01:45:02;16.25;15.25;9.75
72307;PMS5003;60257;42.638;23.376;2023-07-13T01:47:28;21.50;21.00;12.00
72307;PMS5003;60257;42.638;23.376;2023-07-13T01:49:56;18.75;16.50;11.00
72307;PMS5003;60257;42.638;23.376;2023-07-13T01:52:24;20.25;19.00;11.75
72307;PMS5003;60257;42.638;23.376;2023-07-13T01:54:49;18.25;17.00;12.25
72307;PMS5003;60257;42.638;23.376;2023-07-13T01:57:15;14.75;14.75;11.50
72307;PMS5003;60257;42.638;23.376;2023-07-13T01:59:40;17.75;17.75;11.50
72307;PMS5003;60257;42.638;23.376;2023-07-13T02:02:06;17.25;16.00;11.25
72307;PMS5003;60257;42.638;23.376;2023-07-13T02:04:32;19.00;16.25;12.25
72307;PMS5003;60257;42.638;23.376;2023-07-13T02:06:58;17.00;16.00;11.00
72307;PMS5003;60257;42.638;23.376;2023-07-13T02:09:23;18.25;17.00;11.50
72307;PMS5003;60257;42.638;23.376;2023-07-13T02:11:49;16.00;16.00;11.00
72307;PMS5003;60257;42.638;23.376;2023-07-13T02:14:14;18.25;17.00;10.50
72307;PMS5003;60257;42.638;23.376;2023-07-13T02:16:40;18.50;16.25;11.00
72307;PMS5003;60257;42.638;23.376;2023-07-13T02:19:07;21.00;20.00;12.00
72307;PMS5003;60257;42.638;23.376;2023-07-13T02:21:32;16.50;15.75;11.75
72307;PMS5003;60257;42.638;23.376;2023-07-13T02:23:58;17.50;17.50;13.25
72307;PMS5003;60257;42.638;23.376;2023-07-13T02:26:25;33.33;32.00;23.00
72307;PMS5003;60257;42.638;23.376;2023-07-13T02:28:50;16.50;16.00;9.75
72307;PMS5003;60257;42.638;23.376;2023-07-13T02:31:16;19.25;19.25;13.25
72307;PMS5003;60257;42.638;23.376;2023-07-13T02:33:42;21.75;20.25;13.25
72307;PMS5003;60257;42.638;23.376;2023-07-13T02:36:08;16.00;16.00;11.00
72307;PMS5003;60257;42.638;23.376;2023-07-13T02:38:34;19.25;17.75;11.00
72307;PMS5003;60257;42.638;23.376;2023-07-13T02:41:01;21.25;20.25;12.75
72307;PMS5003;60257;42.638;23.376;2023-07-13T02:43:30;15.50;14.75;12.00
72307;PMS5003;60257;42.638;23.376;2023-07-13T02:45:56;18.25;18.25;11.25
72307;PMS5003;60257;42.638;23.376;2023-07-13T02:48:25;17.00;16.75;13.00
72307;PMS5003;60257;42.638;23.376;2023-07-13T02:50:51;19.75;16.25;9.75
72307;PMS5003;60257;42.638;23.376;2023-07-13T02:53:16;20.50;19.75;10.50
72307;PMS5003;60257;42.638;23.376;2023-07-13T02:55:42;11.25;11.00;8.50
72307;PMS5003;60257;42.638;23.376;2023-07-13T02:58:12;16.25;16.25;9.75
72307;PMS5003;60257;42.638;23.376;2023-07-13T03:00:41;18.25;18.25;12.00
72307;PMS5003;60257;42.638;23.376;2023-07-13T03:03:07;18.75;17.50;11.75
72307;PMS5003;60257;42.638;23.376;2023-07-13T03:05:33;18.25;18.25;13.25
72307;PMS5003;60257;42.638;23.376;2023-07-13T03:07:58;17.75;17.75;9.25
72307;PMS5003;60257;42.638;23.376;2023-07-13T03:10:24;15.00;15.00;10.25
72307;PMS5003;60257;42.638;23.376;2023-07-13T03:12:50;22.25;21.00;14.00
72307;PMS5003;60257;42.638;23.376;2023-07-13T03:15:16;18.50;18.50;11.75
72307;PMS5003;60257;42.638;23.376;2023-07-13T03:17:41;20.50;20.00;12.75
72307;PMS5003;60257;42.638;23.376;2023-07-13T03:20:07;22.25;22.25;13.50
72307;PMS5003;60257;42.638;23.376;2023-07-13T03:22:33;17.50;17.25;12.50
72307;PMS5003;60257;42.638;23.376;2023-07-13T03:24:58;18.50;16.25;10.50
72307;PMS5003;60257;42.638;23.376;2023-07-13T03:27:24;18.25;17.75;10.50
72307;PMS5003;60257;42.638;23.376;2023-07-13T03:29:49;17.50;17.50;11.50
72307;PMS5003;60257;42.638;23.376;2023-07-13T03:32:14;17.50;17.50;13.00
72307;PMS5003;60257;42.638;23.376;2023-07-13T03:34:40;20.33;19.33;14.00
72307;PMS5003;60257;42.638;23.376;2023-07-13T03:37:05;19.25;16.50;10.75
72307;PMS5003;60257;42.638;23.376;2023-07-13T03:39:31;25.00;24.50;20.00
72307;PMS5003;60257;42.638;23.376;2023-07-13T03:41:56;23.00;20.25;13.00
72307;PMS5003;60257;42.638;23.376;2023-07-13T03:44:22;24.25;22.50;16.00
72307;PMS5003;60257;42.638;23.376;2023-07-13T03:46:47;23.50;23.50;14.50
72307;PMS5003;60257;42.638;23.376;2023-07-13T03:49:13;23.25;21.50;14.75
72307;PMS5003;60257;42.638;23.376;2023-07-13T03:51:38;16.00;13.25;6.50
72307;PMS5003;60257;42.638;23.376;2023-07-13T03:54:04;23.75;22.25;14.00
72307;PMS5003;60257;42.638;23.376;2023-07-13T03:56:30;19.25;19.25;12.00
72307;PMS5003;60257;42.638;23.376;2023-07-13T03:58:57;24.00;22.25;13.00
72307;PMS5003;60257;42.638;23.376;2023-07-13T04:01:23;19.00;15.50;9.50
72307;PMS5003;60257;42.638;23.376;2023-07-13T04:03:52;21.25;20.25;14.50
72307;PMS5003;60257;42.638;23.376;2023-07-13T04:06:19;21.75;21.50;15.25
72307;PMS5003;60257;42.638;23.376;2023-07-13T04:08:55;21.25;20.25;13.00
72307;PMS5003;60257;42.638;23.376;2023-07-13T04:11:26;27.75;26.25;18.50
72307;PMS5003;60257;42.638;23.376;2023-07-13T04:13:53;22.50;21.25;14.50
72307;PMS5003;60257;42.638;23.376;2023-07-13T04:16:19;20.75;18.75;12.75
72307;PMS5003;60257;42.638;23.376;2023-07-13T04:18:45;19.25;19.25;13.75
72307;PMS5003;60257;42.638;23.376;2023-07-13T04:21:11;24.25;22.00;14.50
72307;PMS5003;60257;42.638;23.376;2023-07-13T04:23:37;25.25;22.25;15.00
72307;PMS5003;60257;42.638;23.376;2023-07-13T04:26:03;18.25;18.25;11.25
72307;PMS5003;60257;42.638;23.376;2023-07-13T04:28:29;30.50;28.00;18.00
72307;PMS5003;60257;42.638;23.376;2023-07-13T04:30:55;25.75;24.75;15.50
72307;PMS5003;60257;42.638;23.376;2023-07-13T04:33:21;23.00;21.75;13.00
72307;PMS5003;60257;42.638;23.376;2023-07-13T04:35:48;26.25;24.25;16.00
72307;PMS5003;60257;42.638;23.376;2023-07-13T04:38:14;28.25;26.75;18.25
72307;PMS5003;60257;42.638;23.376;2023-07-13T04:40:42;23.25;23.25;16.00
72307;PMS5003;60257;42.638;23.376;2023-07-13T04:43:10;24.25;24.00;14.00
72307;PMS5003;60257;42.638;23.376;2023-07-13T04:45:35;20.00;20.00;14.25
72307;PMS5003;60257;42.638;23.376;2023-07-13T04:48:01;21.75;21.75;15.25
72307;PMS5003;60257;42.638;23.376;2023-07-13T04:50:26;26.25;25.75;16.00
72307;PMS5003;60257;42.638;23.376;2023-07-13T04:52:52;24.50;23.75;15.50
72307;PMS5003;60257;42.638;23.376;2023-07-13T04:55:18;24.00;24.00;16.00
72307;PMS5003;60257;42.638;23.376;2023-07-13T04:57:44;23.75;22.75;15.25
72307;PMS5003;60257;42.638;23.376;2023-07-13T05:00:10;24.75;23.50;15.25
72307;PMS5003;60257;42.638;23.376;2023-07-13T05:02:37;28.25;28.25;19.75
72307;PMS5003;60257;42.638;23.376;2023-07-13T05:05:04;24.50;23.25;15.25
72307;PMS5003;60257;42.638;23.376;2023-07-13T05:07:31;23.00;22.00;15.50
72307;PMS5003;60257;42.638;23.376;2023-07-13T05:09:58;26.75;26.75;17.00
72307;PMS5003;60257;42.638;23.376;2023-07-13T05:12:24;23.50;22.50;14.50
72307;PMS5003;60257;42.638;23.376;2023-07-13T05:14:50;23.75;22.00;13.25
72307;PMS5003;60257;42.638;23.376;2023-07-13T05:17:16;21.25;21.25;15.25
72307;PMS5003;60257;42.638;23.376;2023-07-13T05:19:41;38.25;32.75;21.00
72307;PMS5003;60257;42.638;23.376;2023-07-13T05:22:07;23.00;22.00;15.25
72307;PMS5003;60257;42.638;23.376;2023-07-13T05:24:33;26.25;24.50;17.00
72307;PMS5003;60257;42.638;23.376;2023-07-13T05:26:58;19.25;19.25;14.00
72307;PMS5003;60257;42.638;23.376;2023-07-13T05:29:24;22.25;22.25;16.00
72307;PMS5003;60257;42.638;23.376;2023-07-13T05:31:50;21.25;19.00;14.50
72307;PMS5003;60257;42.638;23.376;2023-07-13T05:34:15;23.25;20.75;14.50
72307;PMS5003;60257;42.638;23.376;2023-07-13T05:36:41;19.00;19.00;13.50
72307;PMS5003;60257;42.638;23.376;2023-07-13T05:39:07;26.25;25.25;18.00
72307;PMS5003;60257;42.638;23.376;2023-07-13T05:41:32;29.25;27.75;18.75
72307;PMS5003;60257;42.638;23.376;2023-07-13T05:43:58;24.50;24.50;15.25
72307;PMS5003;60257;42.638;23.376;2023-07-13T05:46:24;25.00;24.00;16.75
72307;PMS5003;60257;42.638;23.376;2023-07-13T05:48:49;27.25;26.75;19.50
72307;PMS5003;60257;42.638;23.376;2023-07-13T05:51:15;27.00;27.00;19.00
72307;PMS5003;60257;42.638;23.376;2023-07-13T05:53:40;25.75;25.75;16.25
72307;PMS5003;60257;42.638;23.376;2023-07-13T05:56:06;28.00;27.50;19.00
72307;PMS5003;60257;42.638;23.376;2023-07-13T05:58:31;28.75;28.75;18.00
72307;PMS5003;60257;42.638;23.376;2023-07-13T06:01:01;22.25;22.00;15.25
72307;PMS5003;60257;42.638;23.376;2023-07-13T06:03:28;28.25;26.75;19.00
72307;PMS5003;60257;42.638;23.376;2023-07-13T06:05:54;28.25;28.00;18.75
72307;PMS5003;60257;42.638;23.376;2023-07-13T06:08:20;17.75;17.75;11.50
72307;PMS5003;60257;42.638;23.376;2023-07-13T06:10:45;31.75;27.75;18.00
72307;PMS5003;60257;42.638;23.376;2023-07-13T06:13:11;31.50;30.00;21.25
72307;PMS5003;60257;42.638;23.376;2023-07-13T06:15:36;33.25;31.50;21.00
72307;PMS5003;60257;42.638;23.376;2023-07-13T06:18:02;29.25;29.25;20.25
72307;PMS5003;60257;42.638;23.376;2023-07-13T06:20:27;27.25;26.25;17.25
72307;PMS5003;60257;42.638;23.376;2023-07-13T06:22:54;30.00;30.00;19.75
72307;PMS5003;60257;42.638;23.376;2023-07-13T06:25:19;26.75;26.75;19.00
72307;PMS5003;60257;42.638;23.376;2023-07-13T06:27:45;24.75;22.00;15.25
72307;PMS5003;60257;42.638;23.376;2023-07-13T06:30:10;31.50;30.00;20.25
72307;PMS5003;60257;42.638;23.376;2023-07-13T06:32:37;28.00;28.00;18.50
72307;PMS5003;60257;42.638;23.376;2023-07-13T06:35:03;27.25;25.25;18.25
72307;PMS5003;60257;42.638;23.376;2023-07-13T06:37:29;26.50;25.50;17.50
72307;PMS5003;60257;42.638;23.376;2023-07-13T06:39:54;24.50;22.00;13.00
72307;PMS5003;60257;42.638;23.376;2023-07-13T06:42:19;23.25;22.25;17.00
72307;PMS5003;60257;42.638;23.376;2023-07-13T06:44:45;29.50;28.50;18.50
72307;PMS5003;60257;42.638;23.376;2023-07-13T06:47:11;34.25;31.00;20.25
72307;PMS5003;60257;42.638;23.376;2023-07-13T06:49:37;26.00;26.00;19.00
72307;PMS5003;60257;42.638;23.376;2023-07-13T06:52:03;29.25;27.75;17.00
72307;PMS5003;60257;42.638;23.376;2023-07-13T06:54:29;25.00;25.00;17.50
72307;PMS5003;60257;42.638;23.376;2023-07-13T06:56:54;17.25;16.75;14.50
72307;PMS5003;60257;42.638;23.376;2023-07-13T06:59:20;27.75;24.75;16.00
72307;PMS5003;60257;42.638;23.376;2023-07-13T07:01:45;28.00;25.75;19.75
72307;PMS5003;60257;42.638;23.376;2023-07-13T07:04:10;31.75;30.25;22.75
72307;PMS5003;60257;42.638;23.376;2023-07-13T07:06:36;27.75;27.00;16.25
72307;PMS5003;60257;42.638;23.376;2023-07-13T07:09:02;22.25;22.25;15.50
72307;PMS5003;60257;42.638;23.376;2023-07-13T07:11:27;30.00;30.00;20.75
72307;PMS5003;60257;42.638;23.376;2023-07-13T07:13:53;28.25;28.00;18.25
72307;PMS5003;60257;42.638;23.376;2023-07-13T07:16:19;26.25;26.25;21.00
72307;PMS5003;60257;42.638;23.376;2023-07-13T07:18:46;33.25;29.50;20.50
72307;PMS5003;60257;42.638;23.376;2023-07-13T07:21:12;34.00;32.50;22.50
72307;PMS5003;60257;42.638;23.376;2023-07-13T07:23:38;30.00;28.00;19.00
72307;PMS5003;60257;42.638;23.376;2023-07-13T07:26:04;25.75;25.75;18.75
72307;PMS5003;60257;42.638;23.376;2023-07-13T07:28:30;30.50;29.75;20.75
72307;PMS5003;60257;42.638;23.376;2023-07-13T07:30:56;25.75;22.50;17.00
72307;PMS5003;60257;42.638;23.376;2023-07-13T07:33:23;23.00;23.00;18.50
72307;PMS5003;60257;42.638;23.376;2023-07-13T07:35:50;27.50;26.50;19.50
72307;PMS5003;60257;42.638;23.376;2023-07-13T07:38:15;31.50;29.25;20.75
72307;PMS5003;60257;42.638;23.376;2023-07-13T07:40:41;25.75;25.75;18.25
72307;PMS5003;60257;42.638;23.376;2023-07-13T07:43:08;31.00;29.75;21.75
72307;PMS5003;60257;42.638;23.376;2023-07-13T07:45:34;29.00;26.75;20.00
72307;PMS5003;60257;42.638;23.376;2023-07-13T07:48:00;28.25;26.75;20.25
72307;PMS5003;60257;42.638;23.376;2023-07-13T07:50:26;27.50;27.50;19.00
72307;PMS5003;60257;42.638;23.376;2023-07-13T07:52:52;33.25;32.50;22.00
72307;PMS5003;60257;42.638;23.376;2023-07-13T07:55:18;22.75;22.75;18.25
72307;PMS5003;60257;42.638;23.376;2023-07-13T07:57:44;29.00;28.00;19.75
72307;PMS5003;60257;42.638;23.376;2023-07-13T08:00:09;27.50;27.50;19.25
72307;PMS5003;60257;42.638;23.376;2023-07-13T08:02:35;30.25;30.25;20.50
72307;PMS5003;60257;42.638;23.376;2023-07-13T08:05:01;25.50;25.50;19.50
72307;PMS5003;60257;42.638;23.376;2023-07-13T08:07:26;31.00;27.50;18.75
72307;PMS5003;60257;42.638;23.376;2023-07-13T08:09:52;24.50;24.50;18.50
72307;PMS5003;60257;42.638;23.376;2023-07-13T08:12:18;34.25;33.00;23.00
72307;PMS5003;60257;42.638;23.376;2023-07-13T08:14:44;31.25;31.00;22.50
72307;PMS5003;60257;42.638;23.376;2023-07-13T08:17:09;29.00;28.75;20.50
72307;PMS5003;60257;42.638;23.376;2023-07-13T08:19:34;33.00;32.50;22.75
72307;PMS5003;60257;42.638;23.376;2023-07-13T08:22:00;26.00;24.50;17.00
72307;PMS5003;60257;42.638;23.376;2023-07-13T08:24:26;33.50;30.25;21.75
72307;PMS5003;60257;42.638;23.376;2023-07-13T08:26:51;33.00;33.00;22.25
72307;PMS5003;60257;42.638;23.376;2023-07-13T08:29:17;46.75;40.00;26.75
72307;PMS5003;60257;42.638;23.376;2023-07-13T08:31:43;32.50;30.50;20.75
72307;PMS5003;60257;42.638;23.376;2023-07-13T08:34:08;27.75;27.75;20.00
72307;PMS5003;60257;42.638;23.376;2023-07-13T08:36:34;31.50;30.00;19.75
72307;PMS5003;60257;42.638;23.376;2023-07-13T08:38:59;28.75;24.75;18.50
72307;PMS5003;60257;42.638;23.376;2023-07-13T08:41:25;31.50;31.50;21.50
72307;PMS5003;60257;42.638;23.376;2023-07-13T08:43:54;26.50;25.25;18.00
72307;PMS5003;60257;42.638;23.376;2023-07-13T08:49:03;32.50;30.00;20.75
72307;PMS5003;60257;42.638;23.376;2023-07-13T08:51:44;31.50;27.50;20.00
72307;PMS5003;60257;42.638;23.376;2023-07-13T08:56:52;30.00;29.00;21.00
72307;PMS5003;60257;42.638;23.376;2023-07-13T08:59:27;23.25;23.25;16.00
72307;PMS5003;60257;42.638;23.376;2023-07-13T09:07:14;27.25;27.25;20.00
72307;PMS5003;60257;42.638;23.376;2023-07-13T09:10:09;27.50;26.50;19.50
72307;PMS5003;60257;42.638;23.376;2023-07-13T09:15:25;28.50;27.50;20.00
72307;PMS5003;60257;42.638;23.376;2023-07-13T09:17:56;33.25;31.50;22.25
72307;PMS5003;60257;42.638;23.376;2023-07-13T09:33:26;36.50;32.00;22.25
72307;PMS5003;60257;42.638;23.376;2023-07-13T09:35:54;33.50;32.00;23.00
72307;PMS5003;60257;42.638;23.376;2023-07-13T09:38:22;40.25;33.75;23.00
72307;PMS5003;60257;42.638;23.376;2023-07-13T09:44:01;47.00;41.00;25.67
72307;PMS5003;60257;42.638;23.376;2023-07-13T09:48:17;38.67;34.33;24.00
72307;PMS5003;60257;42.638;23.376;2023-07-13T09:50:43;30.75;29.75;20.25
72307;PMS5003;60257;42.638;23.376;2023-07-13T09:53:16;29.25;28.25;20.25
72307;PMS5003;60257;42.638;23.376;2023-07-13T09:55:45;41.75;39.50;24.50
72307;PMS5003;60257;42.638;23.376;2023-07-13T09:58:13;32.75;31.25;22.00
72307;PMS5003;60257;42.638;23.376;2023-07-13T10:00:53;33.50;31.25;21.50
72307;PMS5003;60257;42.638;23.376;2023-07-13T10:03:30;34.00;31.25;22.00
72307;PMS5003;60257;42.638;23.376;2023-07-13T10:06:18;47.25;42.00;27.50
72307;PMS5003;60257;42.638;23.376;2023-07-13T10:08:47;33.25;32.25;20.50
72307;PMS5003;60257;42.638;23.376;2023-07-13T10:11:29;33.75;32.00;23.25
72307;PMS5003;60257;42.638;23.376;2023-07-13T10:13:56;28.75;28.00;20.50
72307;PMS5003;60257;42.638;23.376;2023-07-13T10:16:25;40.25;35.25;23.75
72307;PMS5003;60257;42.638;23.376;2023-07-13T10:18:58;34.75;33.50;22.75
72307;PMS5003;60257;42.638;23.376;2023-07-13T10:21:28;36.50;32.50;23.25
72307;PMS5003;60257;42.638;23.376;2023-07-13T10:24:10;29.50;28.50;19.50
72307;PMS5003;60257;42.638;23.376;2023-07-13T10:26:42;35.00;33.50;22.75
72307;PMS5003;60257;42.638;23.376;2023-07-13T10:29:37;39.25;36.75;24.50
72307;PMS5003;60257;42.638;23.376;2023-07-13T10:32:13;37.25;34.75;23.25
72307;PMS5003;60257;42.638;23.376;2023-07-13T10:34:43;37.25;33.75;23.00
72307;PMS5003;60257;42.638;23.376;2023-07-13T10:37:17;41.75;40.75;27.00
72307;PMS5003;60257;42.638;23.376;2023-07-13T10:39:47;31.50;30.25;20.75
72307;PMS5003;60257;42.638;23.376;2023-07-13T10:42:18;38.50;34.75;23.00
72307;PMS5003;60257;42.638;23.376;2023-07-13T10:45:02;32.50;31.50;21.25
72307;PMS5003;60257;42.638;23.376;2023-07-13T10:47:58;33.25;32.00;21.75
72307;PMS5003;60257;42.638;23.376;2023-07-13T10:50:25;33.25;31.25;21.25
72307;PMS5003;60257;42.638;23.376;2023-07-13T10:53:01;29.25;29.25;23.00
72307;PMS5003;60257;42.638;23.376;2023-07-13T10:55:32;32.00;30.75;22.00
72307;PMS5003;60257;42.638;23.376;2023-07-13T11:01:16;34.50;31.00;23.25
72307;PMS5003;60257;42.638;23.376;2023-07-13T11:06:10;37.25;33.50;23.00
72307;PMS5003;60257;42.638;23.376;2023-07-13T11:08:51;31.25;30.50;21.75
72307;PMS5003;60257;42.638;23.376;2023-07-13T11:18:44;27.75;26.50;19.00
72307;PMS5003;60257;42.638;23.376;2023-07-13T11:23:45;27.75;27.75;20.25
72307;PMS5003;60257;42.638;23.376;2023-07-13T11:31:57;35.25;35.00;25.25
72307;PMS5003;60257;42.638;23.376;2023-07-13T11:34:31;32.50;30.50;21.75
72307;PMS5003;60257;42.638;23.376;2023-07-13T11:37:01;33.00;31.50;21.25
72307;PMS5003;60257;42.638;23.376;2023-07-13T11:39:31;32.25;30.50;21.75
72307;PMS5003;60257;42.638;23.376;2023-07-13T11:41:59;30.25;27.75;20.75
72307;PMS5003;60257;42.638;23.376;2023-07-13T11:44:29;21.00;20.75;12.75
72307;PMS5003;60257;42.638;23.376;2023-07-13T11:46:57;25.00;23.00;15.25
72307;PMS5003;60257;42.638;23.376;2023-07-13T11:49:30;29.00;28.50;20.25
72307;PMS5003;60257;42.638;23.376;2023-07-13T11:51:57;30.25;28.00;20.00
72307;PMS5003;60257;42.638;23.376;2023-07-13T11:54:27;26.25;25.50;17.75
72307;PMS5003;60257;42.638;23.376;2023-07-13T11:56:55;29.25;28.25;20.25
72307;PMS5003;60257;42.638;23.376;2023-07-13T11:59:25;44.25;39.00;27.50
72307;PMS5003;60257;42.638;23.376;2023-07-13T12:01:51;28.25;27.00;19.25
72307;PMS5003;60257;42.638;23.376;2023-07-13T12:04:23;26.25;24.50;19.00
72307;PMS5003;60257;42.638;23.376;2023-07-13T12:06:57;28.25;26.50;20.00
72307;PMS5003;60257;42.638;23.376;2023-07-13T12:09:32;29.50;28.50;20.00
72307;PMS5003;60257;42.638;23.376;2023-07-13T12:11:58;29.25;28.25;19.50
72307;PMS5003;60257;42.638;23.376;2023-07-13T12:14:27;26.25;23.75;17.00
72307;PMS5003;60257;42.638;23.376;2023-07-13T12:16:53;25.75;25.50;16.00
72307;PMS5003;60257;42.638;23.376;2023-07-13T12:19:23;33.00;31.00;21.75
72307;PMS5003;60257;42.638;23.376;2023-07-13T12:21:53;31.00;29.25;20.50
72307;PMS5003;60257;42.638;23.376;2023-07-13T12:24:21;27.00;27.00;20.75
72307;PMS5003;60257;42.638;23.376;2023-07-13T12:27:00;22.50;22.50;16.75
72307;PMS5003;60257;42.638;23.376;2023-07-13T12:29:28;24.50;23.50;13.50
72307;PMS5003;60257;42.638;23.376;2023-07-13T12:31:54;31.75;30.00;20.50
72307;PMS5003;60257;42.638;23.376;2023-07-13T12:34:22;27.00;25.75;18.75
72307;PMS5003;60257;42.638;23.376;2023-07-13T12:36:53;28.00;28.00;21.00
72307;PMS5003;60257;42.638;23.376;2023-07-13T12:39:30;28.50;26.50;17.75
72307;PMS5003;60257;42.638;23.376;2023-07-13T12:44:43;32.50;29.00;21.25
72307;PMS5003;60257;42.638;23.376;2023-07-13T12:47:11;25.00;24.50;17.75
72307;PMS5003;60257;42.638;23.376;2023-07-13T12:49:43;27.50;25.25;18.25
72307;PMS5003;60257;42.638;23.376;2023-07-13T12:52:14;28.00;27.00;18.75
72307;PMS5003;60257;42.638;23.376;2023-07-13T12:54:41;27.25;23.75;17.00
72307;PMS5003;60257;42.638;23.376;2023-07-13T12:57:07;26.25;24.75;16.75
72307;PMS5003;60257;42.638;23.376;2023-07-13T12:59:41;25.25;25.25;16.50
72307;PMS5003;60257;42.638;23.376;2023-07-13T13:04:55;24.75;23.25;16.00
72307;PMS5003;60257;42.638;23.376;2023-07-13T13:07:22;28.50;25.00;18.00
72307;PMS5003;60257;42.638;23.376;2023-07-13T13:09:48;41.00;36.75;23.50
72307;PMS5003;60257;42.638;23.376;2023-07-13T13:12:14;26.50;22.50;15.00
72307;PMS5003;60257;42.638;23.376;2023-07-13T13:14:40;22.50;22.25;15.25
72307;PMS5003;60257;42.638;23.376;2023-07-13T13:17:12;22.00;21.75;16.25
72307;PMS5003;60257;42.638;23.376;2023-07-13T13:19:44;23.75;23.75;15.75
72307;PMS5003;60257;42.638;23.376;2023-07-13T13:22:10;22.50;20.75;15.25
72307;PMS5003;60257;42.638;23.376;2023-07-13T13:24:36;26.00;22.75;18.50
72307;PMS5003;60257;42.638;23.376;2023-07-13T13:27:02;23.75;21.75;17.50
72307;PMS5003;60257;42.638;23.376;2023-07-13T13:29:27;22.50;22.50;15.00
72307;PMS5003;60257;42.638;23.376;2023-07-13T13:31:53;31.00;27.50;20.00
72307;PMS5003;60257;42.638;23.376;2023-07-13T13:34:20;19.75;18.00;12.75
72307;PMS5003;60257;42.638;23.376;2023-07-13T13:36:50;24.50;21.00;14.75
72307;PMS5003;60257;42.638;23.376;2023-07-13T13:39:25;23.50;23.00;16.00
72307;PMS5003;60257;42.638;23.376;2023-07-13T13:41:56;20.75;19.75;14.25
72307;PMS5003;60257;42.638;23.376;2023-07-13T13:44:22;20.00;19.50;15.50
72307;PMS5003;60257;42.638;23.376;2023-07-13T13:46:49;23.75;23.00;15.25
72307;PMS5003;60257;42.638;23.376;2023-07-13T13:49:17;21.50;20.75;15.00
72307;PMS5003;60257;42.638;23.376;2023-07-13T13:51:48;28.50;28.50;18.50
72307;PMS5003;60257;42.638;23.376;2023-07-13T13:54:15;27.50;25.75;18.25
72307;PMS5003;60257;42.638;23.376;2023-07-13T13:56:45;21.50;20.75;14.25
72307;PMS5003;60257;42.638;23.376;2023-07-13T13:59:13;21.25;21.00;16.25
72307;PMS5003;60257;42.638;23.376;2023-07-13T14:01:39;25.25;23.00;16.25
72307;PMS5003;60257;42.638;23.376;2023-07-13T14:04:08;23.75;22.00;16.00
72307;PMS5003;60257;42.638;23.376;2023-07-13T14:06:41;21.75;20.75;14.25
72307;PMS5003;60257;42.638;23.376;2023-07-13T14:09:09;24.00;22.25;15.50
72307;PMS5003;60257;42.638;23.376;2023-07-13T14:11:36;21.75;21.50;15.75
72307;PMS5003;60257;42.638;23.376;2023-07-13T14:14:02;22.50;21.25;15.75
72307;PMS5003;60257;42.638;23.376;2023-07-13T14:16:30;16.50;14.00;11.00
72307;PMS5003;60257;42.638;23.376;2023-07-13T14:18:57;20.25;19.50;13.00
72307;PMS5003;60257;42.638;23.376;2023-07-13T14:21:25;19.25;19.00;14.75
72307;PMS5003;60257;42.638;23.376;2023-07-13T14:23:51;22.50;20.50;16.75
72307;PMS5003;60257;42.638;23.376;2023-07-13T14:26:24;27.75;26.50;19.25
72307;PMS5003;60257;42.638;23.376;2023-07-13T14:28:52;24.00;24.00;17.50
72307;PMS5003;60257;42.638;23.376;2023-07-13T14:31:20;37.00;33.25;22.75
72307;PMS5003;60257;42.638;23.376;2023-07-13T14:33:47;26.25;25.75;17.75
72307;PMS5003;60257;42.638;23.376;2023-07-13T14:36:34;22.00;20.50;14.75
72307;PMS5003;60257;42.638;23.376;2023-07-13T14:39:05;22.00;20.75;15.00